createdAt,value
2019-03-04T00:00:31.745Z,811.15
2019-03-04T00:01:31.750Z,811.14
2019-03-04T00:02:31.762Z,811.14
2019-03-04T00:03:31.773Z,811.10
2019-03-04T00:04:31.783Z,811.13
2019-03-04T00:05:31.791Z,811.10
2019-03-04T00:06:31.804Z,811.08
2019-03-04T00:07:31.815Z,811.06
2019-03-04T00:08:32.964Z,811.10
2019-03-04T00:09:31.832Z,811.11
2019-03-04T00:10:31.841Z,811.11
2019-03-04T00:11:31.853Z,811.10
2019-03-04T00:12:31.865Z,811.13
2019-03-04T00:13:31.872Z,811.16
2019-03-04T00:14:31.880Z,811.23
2019-03-04T00:15:31.893Z,811.21
2019-03-04T00:16:31.901Z,811.19
2019-03-04T00:17:31.915Z,811.13
2019-03-04T00:18:31.923Z,811.15
2019-03-04T00:19:31.933Z,811.19
2019-03-04T00:20:31.943Z,811.19
2019-03-04T00:21:31.950Z,811.17
2019-03-04T00:22:31.961Z,811.22
2019-03-04T00:23:31.969Z,811.17
2019-03-04T00:24:31.982Z,811.26
2019-03-04T00:25:31.994Z,811.22
2019-03-04T00:26:32.003Z,811.21
2019-03-04T00:27:32.019Z,811.24
2019-03-04T00:28:32.023Z,811.24
2019-03-04T00:29:32.030Z,811.25
2019-03-04T00:30:32.040Z,811.27
2019-03-04T00:31:32.057Z,811.22
2019-03-04T00:32:32.065Z,811.19
2019-03-04T00:33:32.074Z,811.21
2019-03-04T00:34:32.084Z,811.26
2019-03-04T00:35:32.091Z,811.33
2019-03-04T00:36:32.099Z,811.29
2019-03-04T00:37:32.110Z,811.35
2019-03-04T00:38:32.125Z,811.30
2019-03-04T00:39:32.135Z,811.38
2019-03-04T00:40:32.143Z,811.41
2019-03-04T00:41:32.149Z,811.51
2019-03-04T00:42:32.165Z,811.47
2019-03-04T00:43:32.175Z,811.44
2019-03-04T00:44:32.186Z,811.40
2019-03-04T00:45:32.194Z,811.48
2019-03-04T00:46:32.203Z,811.44
2019-03-04T00:47:32.213Z,811.47
2019-03-04T00:48:32.224Z,811.50
2019-03-04T00:49:32.234Z,811.48
2019-03-04T00:50:32.241Z,811.47
2019-03-04T00:51:32.252Z,811.48
2019-03-04T00:52:32.266Z,811.48
2019-03-04T00:53:32.274Z,811.49
2019-03-04T00:54:32.287Z,811.52
2019-03-04T00:55:32.295Z,811.47
2019-03-04T00:56:32.307Z,811.49
2019-03-04T00:57:32.321Z,811.46
2019-03-04T00:58:32.326Z,811.40
2019-03-04T00:59:32.335Z,811.39
2019-03-04T01:00:32.341Z,811.38
2019-03-04T01:01:32.358Z,811.41
2019-03-04T01:02:32.367Z,811.40
2019-03-04T01:03:32.373Z,811.39
2019-03-04T01:04:32.386Z,811.38
2019-03-04T01:05:32.392Z,811.34
2019-03-04T01:06:32.408Z,811.26
2019-03-04T01:07:32.412Z,811.16
2019-03-04T01:08:32.425Z,811.06
2019-03-04T01:09:32.435Z,811.10
2019-03-04T01:10:32.443Z,811.12
2019-03-04T01:11:32.455Z,811.19
2019-03-04T01:12:32.468Z,811.10
2019-03-04T01:13:32.477Z,810.92
2019-03-04T01:14:32.486Z,810.94
2019-03-04T01:15:32.496Z,811.00
2019-03-04T01:16:32.502Z,811.07
2019-03-04T01:17:32.515Z,811.03
2019-03-04T01:18:32.522Z,811.01
2019-03-04T01:19:32.534Z,811.10
2019-03-04T01:20:32.542Z,811.13
2019-03-04T01:21:32.560Z,811.06
2019-03-04T01:22:32.566Z,811.05
2019-03-04T01:23:32.576Z,811.07
2019-03-04T01:24:32.584Z,811.11
2019-03-04T01:25:32.592Z,811.09
2019-03-04T01:26:32.605Z,811.06
2019-03-04T01:27:32.616Z,811.00
2019-03-04T01:28:32.626Z,811.03
2019-03-04T01:29:32.633Z,810.92
2019-03-04T01:30:32.643Z,810.93
2019-03-04T01:31:32.655Z,810.81
2019-03-04T01:32:32.661Z,810.89
2019-03-04T01:33:32.674Z,810.87
2019-03-04T01:34:32.680Z,810.84
2019-03-04T01:35:32.694Z,810.91
2019-03-04T01:36:32.703Z,810.97
2019-03-04T01:37:32.714Z,810.99
2019-03-04T01:38:32.724Z,810.97
2019-03-04T01:39:32.730Z,810.99
2019-03-04T01:40:32.742Z,811.03
2019-03-04T01:41:32.753Z,811.02
2019-03-04T01:42:32.764Z,811.06
2019-03-04T01:43:32.773Z,811.04
2019-03-04T01:44:32.779Z,811.01
2019-03-04T01:45:32.793Z,810.97
2019-03-04T01:46:32.806Z,811.00
2019-03-04T01:47:32.820Z,810.95
2019-03-04T01:48:32.824Z,811.01
2019-03-04T01:49:32.833Z,811.01
2019-03-04T01:50:32.842Z,810.99
2019-03-04T01:51:32.855Z,810.97
2019-03-04T01:52:32.859Z,811.04
2019-03-04T01:53:32.896Z,810.91
2019-03-04T01:54:32.880Z,810.74
2019-03-04T01:55:32.894Z,810.62
2019-03-04T01:56:32.906Z,810.56
2019-03-04T01:57:32.915Z,810.55
2019-03-04T01:58:32.925Z,810.58
2019-03-04T01:59:32.932Z,810.51
2019-03-04T02:00:32.945Z,810.64
2019-03-04T02:01:32.952Z,810.47
2019-03-04T02:02:32.966Z,810.39
2019-03-04T02:03:32.977Z,810.40
2019-03-04T02:04:32.984Z,810.25
2019-03-04T02:05:32.994Z,810.21
2019-03-04T02:06:33.003Z,810.24
2019-03-04T02:07:33.018Z,810.28
2019-03-04T02:08:33.029Z,810.22
2019-03-04T02:09:33.035Z,810.17
2019-03-04T02:10:33.048Z,810.08
2019-03-04T02:11:33.058Z,809.91
2019-03-04T02:12:33.066Z,809.92
2019-03-04T02:13:33.078Z,809.90
2019-03-04T02:14:33.090Z,809.96
2019-03-04T02:15:33.139Z,809.92
2019-03-04T02:16:33.110Z,809.91
2019-03-04T02:17:33.125Z,809.92
2019-03-04T02:18:33.132Z,809.77
2019-03-04T02:19:33.139Z,809.91
2019-03-04T02:20:33.152Z,809.79
2019-03-04T02:21:33.160Z,809.85
2019-03-04T02:22:33.174Z,809.77
2019-03-04T02:23:33.183Z,809.71
2019-03-04T02:24:33.190Z,809.53
2019-03-04T02:25:33.207Z,809.79
2019-03-04T02:26:33.213Z,809.75
2019-03-04T02:27:33.224Z,809.68
2019-03-04T02:28:33.239Z,809.63
2019-03-04T02:29:33.247Z,809.60
2019-03-04T02:30:33.261Z,809.64
2019-03-04T02:31:33.267Z,809.50
2019-03-04T02:32:33.281Z,809.50
2019-03-04T02:33:33.288Z,809.40
2019-03-04T02:34:33.301Z,809.41
2019-03-04T02:35:33.314Z,809.40
2019-03-04T02:36:33.323Z,809.48
2019-03-04T02:37:33.333Z,809.50
2019-03-04T02:38:33.343Z,809.42
2019-03-04T02:39:33.350Z,809.35
2019-03-04T02:40:33.363Z,809.30
2019-03-04T02:41:33.375Z,809.32
2019-03-04T02:42:33.383Z,809.22
2019-03-04T02:43:33.394Z,809.15
2019-03-04T02:44:33.403Z,809.13
2019-03-04T02:45:33.419Z,809.07
2019-03-04T02:46:33.434Z,809.12
2019-03-04T02:47:33.441Z,809.16
2019-03-04T02:48:33.447Z,809.14
2019-03-04T02:49:33.463Z,809.01
2019-03-04T02:50:33.475Z,808.93
2019-03-04T02:51:33.480Z,808.88
2019-03-04T02:52:33.493Z,808.88
2019-03-04T02:53:33.506Z,808.95
2019-03-04T02:54:33.515Z,808.99
2019-03-04T02:55:33.524Z,808.94
2019-03-04T02:56:33.535Z,808.81
2019-03-04T02:57:33.548Z,808.83
2019-03-04T02:58:33.560Z,808.76
2019-03-04T02:59:33.572Z,808.76
2019-03-04T03:00:33.586Z,808.69
2019-03-04T03:01:33.589Z,808.68
2019-03-04T03:02:33.605Z,808.71
2019-03-04T03:03:33.616Z,808.72
2019-03-04T03:04:33.623Z,808.70
2019-03-04T03:05:33.637Z,808.58
2019-03-04T03:06:33.653Z,808.53
2019-03-04T03:07:33.660Z,808.56
2019-03-04T03:08:33.672Z,808.53
2019-03-04T03:09:33.681Z,808.50
2019-03-04T03:10:33.694Z,808.46
2019-03-04T03:11:33.700Z,808.42
2019-03-04T03:12:33.715Z,808.38
2019-03-04T03:13:33.727Z,808.30
2019-03-04T03:14:33.747Z,808.29
2019-03-04T03:15:33.749Z,808.27
2019-03-04T03:16:33.757Z,808.25
2019-03-04T03:17:33.771Z,808.31
2019-03-04T03:18:33.787Z,808.31
2019-03-04T03:19:33.790Z,808.28
2019-03-04T03:20:33.807Z,808.24
2019-03-04T03:21:33.815Z,808.25
2019-03-04T03:22:33.830Z,808.26
2019-03-04T03:23:33.837Z,808.29
2019-03-04T03:24:33.861Z,808.22
2019-03-04T03:25:33.857Z,808.14
2019-03-04T03:26:33.868Z,808.12
2019-03-04T03:27:33.878Z,808.15
2019-03-04T03:28:33.894Z,808.13
2019-03-04T03:29:33.902Z,808.19
2019-03-04T03:30:33.913Z,808.16
2019-03-04T03:31:33.924Z,808.17
2019-03-04T03:32:33.945Z,808.22
2019-03-04T03:33:33.951Z,808.19
2019-03-04T03:34:33.960Z,808.17
2019-03-04T03:35:33.981Z,808.00
2019-03-04T03:36:33.993Z,808.04
2019-03-04T03:37:33.992Z,808.09
2019-03-04T03:38:33.999Z,808.11
2019-03-04T03:39:34.011Z,808.05
2019-03-04T03:40:34.028Z,808.02
2019-03-04T03:41:34.043Z,808.02
2019-03-04T03:42:34.044Z,808.02
2019-03-04T03:43:34.066Z,807.94
2019-03-04T03:44:34.067Z,807.89
2019-03-04T03:45:34.078Z,807.77
2019-03-04T03:46:34.096Z,807.87
2019-03-04T03:47:34.102Z,807.85
2019-03-04T03:48:34.111Z,807.88
2019-03-04T03:49:34.123Z,807.87
2019-03-04T03:50:34.138Z,807.70
2019-03-04T03:51:34.148Z,807.63
2019-03-04T03:52:34.159Z,807.64
2019-03-04T03:53:34.168Z,807.71
2019-03-04T03:54:34.179Z,807.76
2019-03-04T03:55:34.191Z,807.77
2019-03-04T03:56:34.199Z,807.79
2019-03-04T03:57:34.214Z,807.78
2019-03-04T03:58:34.228Z,807.63
2019-03-04T03:59:34.237Z,807.55
2019-03-04T04:00:34.248Z,807.56
2019-03-04T04:01:34.277Z,807.65
2019-03-04T04:02:34.284Z,807.66
2019-03-04T04:03:34.277Z,807.65
2019-03-04T04:04:34.294Z,807.65
2019-03-04T04:05:34.304Z,807.70
2019-03-04T04:06:34.314Z,807.75
2019-03-04T04:07:34.331Z,807.72
2019-03-04T04:08:34.335Z,807.65
2019-03-04T04:09:34.344Z,807.62
2019-03-04T04:10:34.361Z,807.67
2019-03-04T04:11:34.369Z,807.68
2019-03-04T04:12:34.383Z,807.71
2019-03-04T04:13:34.389Z,807.69
2019-03-04T04:14:34.407Z,807.72
2019-03-04T04:15:34.414Z,807.66
2019-03-04T04:16:34.427Z,807.67
2019-03-04T04:17:34.436Z,807.75
2019-03-04T04:18:34.449Z,807.80
2019-03-04T04:19:34.461Z,807.81
2019-03-04T04:20:34.468Z,807.70
2019-03-04T04:21:34.477Z,807.63
2019-03-04T04:22:34.508Z,807.50
2019-03-04T04:23:34.500Z,807.51
2019-03-04T04:24:34.509Z,807.50
2019-03-04T04:25:34.521Z,807.50
2019-03-04T04:26:34.539Z,807.53
2019-03-04T04:27:34.551Z,807.57
2019-03-04T04:28:34.561Z,807.50
2019-03-04T04:29:34.567Z,807.47
2019-03-04T04:30:34.598Z,807.44
2019-03-04T04:31:34.586Z,807.36
2019-03-04T04:32:34.617Z,807.39
2019-03-04T04:33:34.611Z,807.34
2019-03-04T04:34:34.622Z,807.31
2019-03-04T04:35:34.630Z,807.30
2019-03-04T04:36:34.650Z,807.32
2019-03-04T04:37:34.655Z,807.37
2019-03-04T04:38:34.667Z,807.43
2019-03-04T04:39:34.678Z,807.43
2019-03-04T04:40:34.688Z,807.42
2019-03-04T04:41:34.696Z,807.27
2019-03-04T04:42:34.713Z,807.29
2019-03-04T04:43:34.720Z,807.30
2019-03-04T04:44:34.735Z,807.34
2019-03-04T04:45:34.739Z,807.33
2019-03-04T04:46:34.752Z,807.31
2019-03-04T04:47:34.765Z,807.35
2019-03-04T04:48:34.775Z,807.32
2019-03-04T04:49:34.785Z,807.23
2019-03-04T04:50:34.796Z,807.21
2019-03-04T04:51:34.804Z,807.24
2019-03-04T04:52:34.814Z,807.26
2019-03-04T04:53:34.827Z,807.25
2019-03-04T04:54:34.837Z,807.21
2019-03-04T04:55:34.850Z,807.15
2019-03-04T04:56:34.861Z,807.13
2019-03-04T04:57:34.872Z,807.07
2019-03-04T04:58:34.882Z,806.99
2019-03-04T04:59:34.895Z,807.01
2019-03-04T05:00:34.906Z,806.98
2019-03-04T05:01:34.912Z,806.98
2019-03-04T05:02:34.930Z,806.99
2019-03-04T05:03:34.944Z,806.95
2019-03-04T05:04:34.945Z,806.85
2019-03-04T05:05:34.955Z,806.82
2019-03-04T05:06:34.971Z,806.86
2019-03-04T05:07:34.980Z,806.90
2019-03-04T05:08:34.992Z,806.84
2019-03-04T05:09:34.997Z,806.83
2019-03-04T05:10:35.010Z,806.86
2019-03-04T05:11:35.022Z,806.90
2019-03-04T05:12:35.035Z,806.84
2019-03-04T05:13:35.041Z,806.80
2019-03-04T05:14:35.060Z,806.78
2019-03-04T05:15:35.073Z,806.73
2019-03-04T05:16:35.077Z,806.73
2019-03-04T05:17:35.090Z,806.72
2019-03-04T05:18:35.103Z,806.63
2019-03-04T05:19:35.107Z,806.58
2019-03-04T05:20:35.121Z,806.58
2019-03-04T05:21:35.128Z,806.51
2019-03-04T05:22:35.142Z,806.45
2019-03-04T05:23:35.150Z,806.45
2019-03-04T05:24:35.167Z,806.47
2019-03-04T05:25:35.173Z,806.53
2019-03-04T05:26:35.183Z,806.46
2019-03-04T05:27:35.197Z,806.43
2019-03-04T05:28:35.207Z,806.31
2019-03-04T05:29:35.218Z,806.23
2019-03-04T05:30:35.231Z,806.20
2019-03-04T05:31:35.236Z,806.10
2019-03-04T05:32:35.248Z,806.00
2019-03-04T05:33:35.260Z,806.12
2019-03-04T05:34:35.271Z,806.22
2019-03-04T05:35:35.283Z,806.25
2019-03-04T05:36:35.295Z,806.06
2019-03-04T05:37:35.306Z,805.88
2019-03-04T05:38:35.317Z,805.92
2019-03-04T05:39:35.327Z,806.00
2019-03-04T05:40:35.333Z,806.00
2019-03-04T05:41:35.349Z,806.01
2019-03-04T05:42:35.357Z,806.05
2019-03-04T05:43:35.369Z,805.94
2019-03-04T05:44:35.377Z,805.86
2019-03-04T05:45:35.387Z,805.78
2019-03-04T05:46:35.403Z,805.76
2019-03-04T05:47:35.415Z,805.77
2019-03-04T05:48:35.421Z,805.61
2019-03-04T05:49:35.435Z,805.61
2019-03-04T05:50:35.442Z,805.69
2019-03-04T05:51:35.453Z,805.92
2019-03-04T05:52:35.465Z,805.99
2019-03-04T05:53:35.475Z,806.03
2019-03-04T05:54:35.485Z,806.02
2019-03-04T05:55:35.495Z,805.94
2019-03-04T05:56:35.510Z,805.87
2019-03-04T05:57:35.520Z,805.84
2019-03-04T05:58:35.531Z,805.88
2019-03-04T05:59:35.538Z,805.99
2019-03-04T06:00:35.551Z,806.11
2019-03-04T06:01:35.562Z,806.14
2019-03-04T06:02:35.576Z,806.10
2019-03-04T06:03:35.585Z,806.18
2019-03-04T06:04:35.592Z,806.15
2019-03-04T06:05:35.609Z,806.14
2019-03-04T06:06:35.616Z,806.18
2019-03-04T06:07:35.624Z,806.21
2019-03-04T06:08:35.636Z,806.21
2019-03-04T06:09:35.649Z,806.24
2019-03-04T06:10:35.657Z,806.21
2019-03-04T06:11:35.672Z,806.21
2019-03-04T06:12:35.683Z,806.18
2019-03-04T06:13:35.693Z,806.16
2019-03-04T06:14:35.701Z,806.12
2019-03-04T06:15:35.710Z,806.12
2019-03-04T06:16:35.726Z,806.19
2019-03-04T06:17:35.732Z,806.22
2019-03-04T06:18:35.743Z,806.15
2019-03-04T06:19:35.759Z,806.17
2019-03-04T06:20:35.768Z,806.24
2019-03-04T06:21:35.775Z,806.23
2019-03-04T06:22:35.787Z,806.36
2019-03-04T06:23:35.798Z,806.42
2019-03-04T06:24:35.811Z,806.37
2019-03-04T06:25:35.825Z,806.34
2019-03-04T06:26:35.830Z,806.29
2019-03-04T06:27:35.844Z,806.26
2019-03-04T06:28:35.851Z,806.24
2019-03-04T06:29:35.867Z,806.25
2019-03-04T06:30:35.878Z,806.18
2019-03-04T06:31:35.889Z,806.02
2019-03-04T06:32:35.901Z,806.01
2019-03-04T06:33:35.907Z,806.16
2019-03-04T06:34:35.920Z,806.20
2019-03-04T06:35:35.934Z,806.26
2019-03-04T06:36:35.938Z,806.21
2019-03-04T06:37:35.953Z,806.33
2019-03-04T06:38:35.960Z,806.26
2019-03-04T06:39:35.974Z,806.23
2019-03-04T06:40:35.985Z,806.39
2019-03-04T06:41:35.991Z,806.43
2019-03-04T06:42:36.006Z,806.21
2019-03-04T06:43:36.017Z,806.44
2019-03-04T06:44:36.028Z,806.19
2019-03-04T06:45:36.034Z,806.18
2019-03-04T06:46:36.045Z,806.34
2019-03-04T06:47:36.060Z,806.39
2019-03-04T06:48:36.066Z,806.22
2019-03-04T06:49:36.076Z,806.39
2019-03-04T06:50:36.088Z,806.17
2019-03-04T06:51:36.100Z,806.43
2019-03-04T06:52:36.111Z,806.46
2019-03-04T06:53:36.121Z,806.38
2019-03-04T06:54:36.130Z,806.37
2019-03-04T06:55:36.140Z,806.24
2019-03-04T06:56:36.155Z,806.40
2019-03-04T06:57:36.164Z,806.44
2019-03-04T06:58:36.175Z,806.45
2019-03-04T06:59:36.190Z,806.55
2019-03-04T07:00:36.193Z,806.80
2019-03-04T07:01:36.205Z,807.01
2019-03-04T07:02:36.217Z,807.01
2019-03-04T07:03:36.227Z,807.06
2019-03-04T07:04:36.236Z,807.15
2019-03-04T07:05:36.251Z,807.07
2019-03-04T07:06:36.260Z,807.13
2019-03-04T07:07:36.264Z,807.04
2019-03-04T07:08:36.277Z,807.07
2019-03-04T07:09:36.289Z,807.13
2019-03-04T07:10:36.297Z,807.04
2019-03-04T07:11:36.308Z,807.08
2019-03-04T07:12:36.316Z,807.02
2019-03-04T07:13:36.327Z,806.80
2019-03-04T07:14:36.338Z,807.02
2019-03-04T07:15:36.347Z,807.16
2019-03-04T07:16:36.358Z,807.09
2019-03-04T07:17:36.370Z,806.95
2019-03-04T07:18:36.380Z,807.01
2019-03-04T07:19:36.389Z,807.05
2019-03-04T07:20:36.399Z,806.99
2019-03-04T07:21:36.410Z,807.04
2019-03-04T07:22:36.424Z,807.02
2019-03-04T07:23:36.436Z,806.93
2019-03-04T07:24:36.445Z,806.88
2019-03-04T07:25:36.452Z,806.85
2019-03-04T07:26:36.461Z,806.97
2019-03-04T07:27:36.474Z,807.02
2019-03-04T07:28:36.486Z,807.02
2019-03-04T07:29:36.495Z,807.04
2019-03-04T07:30:36.501Z,807.01
2019-03-04T07:31:36.515Z,807.00
2019-03-04T07:32:36.523Z,806.93
2019-03-04T07:33:36.532Z,806.96
2019-03-04T07:34:36.544Z,806.97
2019-03-04T07:35:36.551Z,806.88
2019-03-04T07:36:36.569Z,806.91
2019-03-04T07:37:36.575Z,806.88
2019-03-04T07:38:36.587Z,806.87
2019-03-04T07:39:36.597Z,806.81
2019-03-04T07:40:36.604Z,806.77
2019-03-04T07:41:36.618Z,806.75
2019-03-04T07:42:36.632Z,806.61
2019-03-04T07:43:36.640Z,806.59
2019-03-04T07:44:36.647Z,806.69
2019-03-04T07:45:36.663Z,806.79
2019-03-04T07:46:36.665Z,806.67
2019-03-04T07:47:36.676Z,806.74
2019-03-04T07:48:36.690Z,806.98
2019-03-04T07:49:36.693Z,807.11
2019-03-04T07:50:36.707Z,806.87
2019-03-04T07:51:36.746Z,806.65
2019-03-04T07:52:36.727Z,806.61
2019-03-04T07:53:46.070Z,806.65
2019-03-04T07:54:36.741Z,806.67
2019-03-04T07:55:36.753Z,807.28
2019-03-04T07:56:36.765Z,806.90
2019-03-04T07:57:36.775Z,806.70
2019-03-04T07:58:36.782Z,806.96
2019-03-04T07:59:36.790Z,806.89
2019-03-04T08:00:36.800Z,806.77
2019-03-04T08:01:36.816Z,806.49
2019-03-04T08:02:36.819Z,806.57
2019-03-04T08:03:36.830Z,806.59
2019-03-04T08:04:36.838Z,806.58
2019-03-04T08:05:36.849Z,806.62
2019-03-04T08:06:36.859Z,806.80
2019-03-04T08:07:36.872Z,806.94
2019-03-04T08:08:36.877Z,807.02
2019-03-04T08:09:36.889Z,807.10
2019-03-04T08:10:36.899Z,807.12
2019-03-04T08:11:36.908Z,807.00
2019-03-04T08:12:36.913Z,806.83
2019-03-04T08:13:36.927Z,806.57
2019-03-04T08:14:36.934Z,806.57
2019-03-04T08:15:36.946Z,806.69
2019-03-04T08:16:36.958Z,806.76
2019-03-04T08:17:36.965Z,806.78
2019-03-04T08:18:36.977Z,806.71
2019-03-04T08:19:36.985Z,806.56
2019-03-04T08:20:36.994Z,807.15
2019-03-04T08:21:37.005Z,806.94
2019-03-04T08:22:37.011Z,806.81
2019-03-04T08:23:37.024Z,806.85
2019-03-04T08:24:37.029Z,806.96
2019-03-04T08:25:37.042Z,807.05
2019-03-04T08:26:37.051Z,806.90
2019-03-04T08:27:37.058Z,806.72
2019-03-04T08:28:37.068Z,806.94
2019-03-04T08:29:37.078Z,807.02
2019-03-04T08:30:37.087Z,807.03
2019-03-04T08:31:37.097Z,806.98
2019-03-04T08:32:37.106Z,806.97
2019-03-04T08:33:37.121Z,807.03
2019-03-04T08:34:37.132Z,806.96
2019-03-04T08:35:37.138Z,806.99
2019-03-04T08:36:37.144Z,807.06
2019-03-04T08:37:37.158Z,806.85
2019-03-04T08:38:37.164Z,806.63
2019-03-04T08:39:37.175Z,806.56
2019-03-04T08:40:37.186Z,806.82
2019-03-04T08:41:37.201Z,806.73
2019-03-04T08:42:37.204Z,806.73
2019-03-04T08:43:37.218Z,806.83
2019-03-04T08:44:37.229Z,806.75
2019-03-04T08:45:37.242Z,806.58
2019-03-04T08:46:37.244Z,806.43
2019-03-04T08:47:37.256Z,806.82
2019-03-04T08:48:37.266Z,806.81
2019-03-04T08:49:37.276Z,806.85
2019-03-04T08:50:37.283Z,806.76
2019-03-04T08:51:37.295Z,806.81
2019-03-04T08:52:37.307Z,806.85
2019-03-04T08:53:37.316Z,806.80
2019-03-04T08:54:37.323Z,806.71
2019-03-04T08:55:37.336Z,806.80
2019-03-04T08:56:37.341Z,806.85
2019-03-04T08:57:37.353Z,806.83
2019-03-04T08:58:37.366Z,806.88
2019-03-04T08:59:37.371Z,806.91
2019-03-04T09:00:37.383Z,806.84
2019-03-04T09:01:37.396Z,806.86
2019-03-04T09:02:37.406Z,806.79
2019-03-04T09:03:37.411Z,806.77
2019-03-04T09:04:37.423Z,806.65
2019-03-04T09:05:37.434Z,806.59
2019-03-04T09:06:37.442Z,806.55
2019-03-04T09:07:37.458Z,806.55
2019-03-04T09:08:37.505Z,806.52
2019-03-04T09:09:37.474Z,806.50
2019-03-04T09:10:37.481Z,806.48
2019-03-04T09:11:37.495Z,806.47
2019-03-04T09:12:37.503Z,806.50
2019-03-04T09:13:37.512Z,806.47
2019-03-04T09:14:37.528Z,806.45
2019-03-04T09:15:37.528Z,806.38
2019-03-04T09:16:37.539Z,806.42
2019-03-04T09:17:37.550Z,806.46
2019-03-04T09:18:37.563Z,806.51
2019-03-04T09:19:37.571Z,806.52
2019-03-04T09:20:37.580Z,806.54
2019-03-04T09:21:37.588Z,806.52
2019-03-04T09:22:37.597Z,806.52
2019-03-04T09:23:37.608Z,806.50
2019-03-04T09:24:37.619Z,806.47
2019-03-04T09:25:37.628Z,806.47
2019-03-04T09:26:37.635Z,806.33
2019-03-04T09:27:37.647Z,806.35
2019-03-04T09:28:37.656Z,806.33
2019-03-04T09:29:37.663Z,806.37
2019-03-04T09:30:37.673Z,806.41
2019-03-04T09:31:37.683Z,806.45
2019-03-04T09:32:37.693Z,806.36
2019-03-04T09:33:37.704Z,806.35
2019-03-04T09:34:37.712Z,806.31
2019-03-04T09:35:37.720Z,806.28
2019-03-04T09:36:37.727Z,806.20
2019-03-04T09:37:37.738Z,806.29
2019-03-04T09:38:37.749Z,806.28
2019-03-04T09:39:37.757Z,806.30
2019-03-04T09:40:37.762Z,806.34
2019-03-04T09:41:37.772Z,806.33
2019-03-04T09:42:37.786Z,806.28
2019-03-04T09:43:37.789Z,806.26
2019-03-04T09:44:37.798Z,806.24
2019-03-04T09:45:39.133Z,806.26
2019-03-04T09:46:37.818Z,806.24
2019-03-04T09:47:37.824Z,806.26
2019-03-04T09:48:37.833Z,806.07
2019-03-04T09:49:37.842Z,805.97
2019-03-04T09:50:37.854Z,805.89
2019-03-04T09:51:37.861Z,805.85
2019-03-04T09:52:37.867Z,805.88
2019-03-04T09:53:39.773Z,805.95
2019-03-04T09:54:37.886Z,805.99
2019-03-04T09:55:37.894Z,806.06
2019-03-04T09:56:37.905Z,806.23
2019-03-04T09:57:37.924Z,806.19
2019-03-04T09:58:37.923Z,806.12
2019-03-04T09:59:37.933Z,806.17
2019-03-04T10:00:37.942Z,806.15
2019-03-04T10:01:37.951Z,806.09
2019-03-04T10:02:37.955Z,806.11
2019-03-04T10:03:38.014Z,806.17
2019-03-04T10:04:37.976Z,806.18
2019-03-04T10:05:37.982Z,806.18
2019-03-04T10:06:37.996Z,806.07
2019-03-04T10:07:38.002Z,806.14
2019-03-04T10:08:38.012Z,806.23
2019-03-04T10:09:38.019Z,806.22
2019-03-04T10:10:38.028Z,806.12
2019-03-04T10:11:38.032Z,806.08
2019-03-04T10:12:38.040Z,806.00
2019-03-04T10:13:38.054Z,805.98
2019-03-04T10:14:38.063Z,805.99
2019-03-04T10:15:38.069Z,805.98
2019-03-04T10:16:38.080Z,805.96
2019-03-04T10:17:38.096Z,805.89
2019-03-04T10:18:38.093Z,805.95
2019-03-04T10:19:38.116Z,806.00
2019-03-04T10:20:38.110Z,806.03
2019-03-04T10:21:38.119Z,805.95
2019-03-04T10:22:38.131Z,805.94
2019-03-04T10:23:38.133Z,805.93
2019-03-04T10:24:38.145Z,806.09
2019-03-04T10:25:38.153Z,806.01
2019-03-04T10:26:38.161Z,805.82
2019-03-04T10:27:38.171Z,805.89
2019-03-04T10:28:38.175Z,805.87
2019-03-04T10:29:38.185Z,805.96
2019-03-04T10:30:38.198Z,806.06
2019-03-04T10:31:38.204Z,805.83
2019-03-04T10:32:38.215Z,805.71
2019-03-04T10:33:38.223Z,805.78
2019-03-04T10:34:38.227Z,805.76
2019-03-04T10:35:38.237Z,805.90
2019-03-04T10:36:38.244Z,805.90
2019-03-04T10:37:38.250Z,805.68
2019-03-04T10:38:38.263Z,805.66
2019-03-04T10:39:38.268Z,805.56
2019-03-04T10:40:38.275Z,805.50
2019-03-04T10:41:38.285Z,805.55
2019-03-04T10:42:38.295Z,805.54
2019-03-04T10:43:38.300Z,805.52
2019-03-04T10:44:38.307Z,805.47
2019-03-04T10:45:38.315Z,805.44
2019-03-04T10:46:38.322Z,805.33
2019-03-04T10:47:38.330Z,805.29
2019-03-04T10:48:38.341Z,805.27
2019-03-04T10:49:38.344Z,805.28
2019-03-04T10:50:38.356Z,805.37
2019-03-04T10:51:38.364Z,805.38
2019-03-04T10:52:38.370Z,805.33
2019-03-04T10:53:38.379Z,805.37
2019-03-04T10:54:38.383Z,805.29
2019-03-04T10:55:41.960Z,805.19
2019-03-04T10:56:41.599Z,805.16
2019-03-04T10:57:38.405Z,805.08
2019-03-04T10:58:38.418Z,805.14
2019-03-04T10:59:38.430Z,805.05
2019-03-04T11:00:38.429Z,805.06
2019-03-04T11:01:38.438Z,805.11
2019-03-04T11:02:38.449Z,805.12
2019-03-04T11:03:38.451Z,805.12
2019-03-04T11:04:38.463Z,805.07
2019-03-04T11:05:38.471Z,805.07
2019-03-04T11:06:38.482Z,805.08
2019-03-04T11:07:38.485Z,805.18
2019-03-04T11:08:38.500Z,805.19
2019-03-04T11:09:38.503Z,805.19
2019-03-04T11:10:38.511Z,805.26
2019-03-04T11:11:38.518Z,805.31
2019-03-04T11:12:38.531Z,805.31
2019-03-04T11:13:38.534Z,805.42
2019-03-04T11:14:38.542Z,805.38
2019-03-04T11:15:38.549Z,805.51
2019-03-04T11:16:38.554Z,805.55
2019-03-04T11:17:38.570Z,805.47
2019-03-04T11:18:38.581Z,805.51
2019-03-04T11:19:38.585Z,805.50
2019-03-04T11:20:38.588Z,805.59
2019-03-04T11:21:38.593Z,805.70
2019-03-04T11:22:38.604Z,805.71
2019-03-04T11:23:38.611Z,805.69
2019-03-04T11:24:38.619Z,805.63
2019-03-04T11:25:38.670Z,805.51
2019-03-04T11:26:38.632Z,805.57
2019-03-04T11:27:38.642Z,805.40
2019-03-04T11:28:38.646Z,805.39
2019-03-04T11:29:38.658Z,805.30
2019-03-04T11:30:38.665Z,805.32
2019-03-04T11:31:38.672Z,805.25
2019-03-04T11:32:38.680Z,805.05
2019-03-04T11:33:38.689Z,805.21
2019-03-04T11:34:38.698Z,805.19
2019-03-04T11:35:38.698Z,805.08
2019-03-04T11:36:38.712Z,805.19
2019-03-04T11:37:38.718Z,805.39
2019-03-04T11:38:38.725Z,805.49
2019-03-04T11:39:38.733Z,805.56
2019-03-04T11:40:38.740Z,805.55
2019-03-04T11:41:38.743Z,805.49
2019-03-04T11:42:38.754Z,805.40
2019-03-04T11:43:38.812Z,805.57
2019-03-04T11:44:38.764Z,805.50
2019-03-04T11:45:38.775Z,805.55
2019-03-04T11:46:38.783Z,805.67
2019-03-04T11:47:38.789Z,805.72
2019-03-04T11:48:38.793Z,805.87
2019-03-04T11:49:38.800Z,805.67
2019-03-04T11:50:38.827Z,805.91
2019-03-04T11:51:38.819Z,805.75
2019-03-04T11:52:38.822Z,805.80
2019-03-04T11:53:38.827Z,805.84
2019-03-04T11:54:38.834Z,806.08
2019-03-04T11:55:38.844Z,805.98
2019-03-04T11:56:38.850Z,806.15
2019-03-04T11:57:38.853Z,806.05
2019-03-04T11:58:38.864Z,806.02
2019-03-04T11:59:38.886Z,805.92
2019-03-04T12:00:38.874Z,806.04
2019-03-04T12:01:38.882Z,805.95
2019-03-04T12:02:39.369Z,806.06
2019-03-04T12:03:38.893Z,806.09
2019-03-04T12:04:38.902Z,806.05
2019-03-04T12:05:38.905Z,805.91
2019-03-04T12:06:38.911Z,805.92
2019-03-04T12:07:38.920Z,806.05
2019-03-04T12:08:38.929Z,806.06
2019-03-04T12:09:38.933Z,805.97
2019-03-04T12:10:38.936Z,806.02
2019-03-04T12:11:38.942Z,806.17
2019-03-04T12:12:38.952Z,806.14
2019-03-04T12:13:38.959Z,806.28
2019-03-04T12:14:38.970Z,806.30
2019-03-04T12:15:38.970Z,806.28
2019-03-04T12:16:38.972Z,806.21
2019-03-04T12:17:38.978Z,806.29
2019-03-04T12:18:38.988Z,806.31
2019-03-04T12:19:38.993Z,806.40
2019-03-04T12:20:38.995Z,806.45
2019-03-04T12:21:39.000Z,806.41
2019-03-04T12:22:39.013Z,806.45
2019-03-04T12:23:39.012Z,806.52
2019-03-04T12:24:39.021Z,806.33
2019-03-04T12:25:39.027Z,806.41
2019-03-04T12:26:39.039Z,806.48
2019-03-04T12:27:39.038Z,806.68
2019-03-04T12:28:39.040Z,806.70